Latest Weather Observations for Maatsuyker Island

IDT60801

Issued at 3:01 pm EST Tuesday 28 April 2015 (issued every 30 minutes, with the page automatically refreshed every 10 minutes)

About weather observations | Map of weather stations | Latest weather observations for TAS | Other Formats
Station Details ID: 094041 Name: MAATSUYKER ISLAND LIGHTHOUSE Lat: -43.66 Lon: 146.27 Height: 146.5 m
Data from the previous 72 hours. | See also: Recent months at Maatsuyker Island
Date/Time
EST
Temp
°C
App
Temp
°C
Dew
Point
Rel
Hum
%
Delta-T
°C
Wind Press
QNH
hPa
Press
MSL
hPa
Rain
since 9 am
mm
Dir
 
Spd
km/h
Gust
km/h
Spd
kts
Gust
kts
28/03:00pm 11.3 2.7 8.0 80 1.6 WNW 43 50 23 27 1026.5 - 0.0
28/02:30pm 11.0 1.9 8.6 85 1.2 NW 46 52 25 28 1026.4 - 0.0
28/02:00pm 11.3 2.5 8.2 81 1.5 WNW 44 50 24 27 1026.5 - 0.0
28/01:30pm 11.6 2.4 7.9 78 1.8 NW 46 52 25 28 1026.4 - 0.0
28/01:00pm 11.6 2.8 8.1 79 1.7 WNW 44 52 24 28 1026.5 - 0.0
28/12:30pm 11.9 4.2 7.1 72 2.3 WNW 37 43 20 23 1026.9 - 0.0
28/12:00pm 12.7 5.6 6.4 65 3.0 WNW 33 43 18 23 1027.2 1027.2 0.0
28/11:30am 12.2 5.0 6.0 66 2.9 WNW 33 39 18 21 1027.1 - 0.0
28/11:00am 11.4 4.5 6.5 72 2.3 WNW 32 41 17 22 1027.2 - 0.0
28/10:30am 10.6 4.5 6.6 76 1.9 WNW 28 33 15 18 1027.2 - 0.0
28/10:00am 10.9 3.8 8.2 83 1.3 NW 35 41 19 22 1026.9 - 0.0
28/09:30am 10.3 3.2 8.0 86 1.1 NW 35 41 19 22 1026.7 - 0.0
28/09:00am 9.9 4.2 8.3 90 0.8 WSW 28 37 15 20 1026.6 1026.7 0.6
28/08:30am 10.3 3.8 6.7 78 1.7 WNW 30 35 16 19 1026.5 - 0.6
28/08:00am 10.2 3.4 7.5 83 1.3 NW 33 41 18 22 1026.1 - 0.6
28/07:30am 9.9 2.9 6.7 80 1.5 WNW 33 39 18 21 1025.8 - 0.6
28/07:00am 9.9 3.0 6.5 79 1.6 WNW 32 39 17 21 1025.7 - 0.6
28/06:30am 10.3 3.5 5.0 69 2.4 WNW 30 39 16 21 1025.5 - 0.6
28/06:00am 10.3 3.8 4.5 67 2.6 W 28 35 15 19 1025.2 1025.2 0.6
28/05:30am 10.2 2.8 3.9 65 2.8 W 32 43 17 23 1025.0 - 0.6
28/05:00am 9.4 2.9 6.4 81 1.4 W 30 37 16 20 1024.9 - 0.6
28/04:30am 9.7 2.9 6.9 83 1.3 W 32 43 17 23 1024.6 - 0.6
28/04:00am 9.5 2.2 7.2 85 1.1 W 35 52 19 28 1023.9 - 0.6
28/03:30am 10.2 1.1 5.9 74 2.0 WNW 43 46 23 25 1023.6 - 0.6
28/03:00am 9.3 0.8 7.0 85 1.1 WNW 41 50 22 27 1024.3 1024.3 0.6
28/02:30am 10.4 0.8 3.6 63 3.0 WNW 43 50 23 27 1024.0 - 0.6
28/02:00am 9.9 1.6 6.2 78 1.7 WNW 39 48 21 26 1024.2 - 0.6
28/01:30am 10.1 2.8 5.5 73 2.1 WNW 33 41 18 22 1023.9 - 0.6
28/01:00am 10.1 2.6 4.3 67 2.6 WNW 33 39 18 21 1024.1 - 0.6
28/12:30am 10.1 2.3 5.0 70 2.3 WNW 35 43 19 23 1024.2 - 0.4
28/12:00am 9.7 2.0 7.2 84 1.2 WNW 37 44 20 24 1024.1 1024.1 0.4
 
Date/Time
EST
Temp
°C
App
Temp
°C
Dew
Point
Rel
Hum
%
Delta-T
°C
Wind Press
QNH
hPa
Press
MSL
hPa
Rain
since 9 am
mm
Dir
 
Spd
km/h
Gust
km/h
Spd
kts
Gust
kts
27/11:30pm 9.7 2.7 6.0 78 1.7 W 32 41 17 22 1024.0 - 0.4
27/11:23pm 9.8 3.6 6.1 78 1.7 W 28 43 15 23 1024.0 - 0.4
27/11:00pm 9.4 1.1 5.9 79 1.6 WNW 39 44 21 24 1023.8 - 0.4
27/10:59pm 9.4 1.1 6.2 80 1.5 WNW 39 44 21 24 1023.8 - 0.4
27/10:30pm 9.3 2.9 7.0 85 1.1 W 30 37 16 20 1023.9 - 0.4
27/10:00pm 9.5 3.4 6.5 81 1.4 W 28 37 15 20 1023.9 - 0.4
27/09:30pm 9.5 3.2 7.2 85 1.1 WNW 30 37 16 20 1023.7 - 0.4
27/09:00pm 9.2 3.3 7.5 89 0.8 WNW 28 39 15 21 1023.8 1023.8 0.4
27/08:30pm 9.1 3.2 7.6 90 0.7 NW 28 32 15 17 1023.1 - 0.4
27/08:00pm 9.3 3.0 7.4 88 0.9 W 30 37 16 20 1023.6 - 0.2
27/07:30pm 9.4 3.8 7.1 85 1.1 WNW 26 33 14 18 1022.9 - 0.2
27/07:00pm 9.7 3.7 5.5 75 1.9 WNW 26 30 14 16 1022.7 - 0.2
27/06:30pm 9.6 2.6 5.9 78 1.7 WNW 32 41 17 22 1022.3 - 0.2
27/06:00pm 9.8 2.8 6.1 78 1.7 WNW 32 37 17 20 1021.9 1022.0 0.2
27/05:30pm 9.6 2.6 5.9 78 1.7 WNW 32 37 17 20 1021.7 - 0.2
27/05:00pm 9.6 3.5 6.4 80 1.5 W 28 35 15 19 1021.6 - 0.2
27/04:30pm 9.8 3.5 7.3 84 1.2 WNW 30 39 16 21 1021.2 - 0.2
27/04:00pm 9.7 3.4 7.2 84 1.2 WNW 30 35 16 19 1021.2 - 0.2
27/03:30pm 9.9 4.7 7.2 83 1.3 WNW 24 28 13 15 1020.9 - 0.2
27/03:00pm 10.4 5.7 7.7 83 1.3 WSW 22 35 12 19 1020.9 1021.0 0.2
27/02:30pm 9.4 3.5 7.3 87 1.0 W 28 39 15 21 1020.7 - 0.2
27/02:00pm 9.6 4.7 6.8 83 1.3 W 22 33 12 18 1020.5 - 0.2
27/01:30pm 9.4 3.9 7.7 89 0.8 W 26 33 14 18 1020.3 - 0.2
27/01:00pm 9.3 5.0 7.8 90 0.7 WNW 20 32 11 17 1020.0 - 0.2
27/12:30pm 10.8 5.0 6.3 74 2.1 WNW 26 30 14 16 1020.0 - 0.0
27/12:00pm 9.6 4.9 6.2 79 1.6 W 20 30 11 16 1020.2 1020.2 0.0
27/11:30am 9.6 4.6 6.6 81 1.4 WSW 22 33 12 18 1020.3 - 0.0
27/11:00am 9.9 3.6 7.2 83 1.3 WNW 30 41 16 22 1020.0 - 0.0
27/10:30am 9.3 4.3 6.5 83 1.3 W 22 33 12 18 1020.0 - 0.0
27/10:00am 8.6 3.6 6.4 86 1.0 W 22 30 12 16 1019.7 - 0.0
27/09:30am 9.4 4.1 5.2 75 1.9 WSW 22 30 12 16 1019.3 - 0.0
27/09:00am 9.1 3.4 5.1 76 1.8 WSW 24 39 13 21 1019.1 1019.1 3.2
27/08:30am 9.3 2.9 5.1 75 1.9 WSW 28 37 15 20 1018.8 - 3.2
27/08:00am 9.6 3.2 3.4 65 2.7 SW 26 39 14 21 1018.4 - 3.2
27/07:30am 9.5 3.2 3.6 66 2.6 W 26 37 14 20 1017.9 - 3.2
27/07:00am 9.6 3.7 3.7 66 2.6 W 24 37 13 20 1017.5 - 3.2
27/06:30am 9.3 2.8 4.6 72 2.1 W 28 37 15 20 1017.3 - 3.2
27/06:00am 8.6 1.5 6.2 85 1.1 SSW 33 46 18 25 1017.2 1017.2 3.2
27/05:51am 9.1 2.3 5.1 76 1.8 W 30 41 16 22 1017.1 - 3.2
27/05:30am 8.5 -0.2 5.9 84 1.2 WSW 41 50 22 27 1017.1 - 3.2
27/05:19am 9.0 2.2 6.9 87 1.0 WSW 32 50 17 27 1016.9 - 3.2
27/05:00am 8.7 2.7 5.4 80 1.5 W 26 35 14 19 1016.7 - 3.2
27/04:30am 9.0 2.2 5.2 77 1.7 W 30 41 16 22 1016.4 - 3.2
27/04:00am 8.7 0.9 4.9 77 1.7 WNW 35 46 19 25 1016.0 - 3.2
27/03:30am 8.9 1.6 5.4 79 1.6 W 33 43 18 23 1015.9 - 3.2
27/03:00am 9.1 1.9 5.8 80 1.5 W 33 39 18 21 1015.8 1015.9 3.2
27/02:30am 8.6 0.8 4.8 77 1.7 W 35 44 19 24 1015.9 - 3.2
27/02:02am 8.5 1.5 6.1 85 1.1 W 32 50 17 27 1016.0 - 3.2
27/02:00am 8.3 1.8 6.4 88 0.9 W 30 39 16 21 1015.9 - 3.2
27/01:30am 8.0 -0.2 6.7 91 0.6 W 39 50 21 27 1016.0 - 3.2
27/01:00am 8.4 0.3 6.9 90 0.7 WNW 39 50 21 27 1015.9 - 2.8
27/12:30am 8.1 1.2 6.6 90 0.7 WNW 32 44 17 24 1015.9 - 2.8
27/12:12am 8.9 1.4 6.3 84 1.2 W 35 56 19 30 1015.9 - 2.8
27/12:00am 8.5 2.1 5.4 81 1.4 W 28 39 15 21 1015.8 1015.9 2.8
 
Date/Time
EST
Temp
°C
App
Temp
°C
Dew
Point
Rel
Hum
%
Delta-T
°C
Wind Press
QNH
hPa
Press
MSL
hPa
Rain
since 9 am
mm
Dir
 
Spd
km/h
Gust
km/h
Spd
kts
Gust
kts
26/11:59pm 8.5 1.8 5.4 81 1.4 W 30 41 16 22 1015.8 - 2.8
26/11:44pm 8.5 0.4 5.4 81 1.4 WSW 37 43 20 23 1015.9 - 2.8
26/11:30pm 9.1 1.9 6.1 81 1.4 W 33 46 18 25 1015.6 - 2.8
26/11:00pm 9.2 1.6 2.7 64 2.8 W 32 48 17 26 1015.7 - 2.8
26/10:53pm 9.2 2.0 3.2 66 2.6 W 30 48 16 26 1015.6 - 2.8
26/10:30pm 8.9 1.3 3.9 71 2.2 WSW 33 46 18 25 1015.7 - 2.8
26/10:00pm 8.8 1.7 5.7 81 1.4 W 32 39 17 21 1015.7 - 2.8
26/09:41pm 8.9 2.0 6.3 84 1.2 W 32 50 17 27 1015.4 - 2.6
26/09:30pm 8.6 2.2 5.3 80 1.5 W 28 39 15 21 1015.6 - 2.6
26/09:00pm 8.4 2.3 6.7 89 0.8 W 28 39 15 21 1015.4 1015.5 2.6
26/08:39pm 9.1 1.1 5.8 80 1.5 WSW 37 50 20 27 1015.3 - 2.6
26/08:30pm 8.8 1.5 5.3 79 1.6 W 33 43 18 23 1015.1 - 2.6
26/08:24pm 9.1 1.2 6.1 81 1.4 W 37 43 20 23 1015.0 - 2.6
26/08:00pm 8.7 1.3 5.2 79 1.6 WSW 33 44 18 24 1014.9 - 2.6
26/07:30pm 8.6 1.3 4.3 74 1.9 W 32 44 17 24 1014.8 - 2.6
26/07:16pm 8.7 1.7 5.9 82 1.3 W 32 41 17 22 1014.8 - 2.6
26/07:00pm 8.9 -0.7 6.1 82 1.3 WNW 46 56 25 30 1014.6 - 2.6
26/06:57pm 8.8 -0.3 6.0 82 1.3 WNW 43 52 23 28 1014.3 - 2.6
26/06:30pm 9.2 3.1 5.0 75 1.9 W 26 37 14 20 1014.2 - 2.6
26/06:02pm 9.2 2.0 5.2 76 1.8 W 32 50 17 27 1013.9 - 2.6
26/06:00pm 9.2 1.9 4.5 72 2.1 W 32 44 17 24 1013.8 1013.8 2.6
26/05:30pm 8.5 1.4 5.4 81 1.4 W 32 46 17 25 1013.5 - 2.6
26/05:00pm 9.3 1.4 4.6 72 2.1 W 35 46 19 25 1013.2 - 2.6
26/04:30pm 9.4 2.0 5.2 75 1.9 W 33 46 18 25 1012.9 - 2.6
26/04:00pm 9.6 2.7 6.6 81 1.4 WSW 32 44 17 24 1012.5 - 2.6
26/03:30pm 9.5 3.2 7.4 87 1.0 WSW 30 43 16 23 1012.2 - 2.6
26/03:28pm 9.6 2.8 7.5 87 1.0 WSW 33 52 18 28 1012.2 - 2.6
26/03:00pm 9.3 1.5 6.8 84 1.2 SW 37 48 20 26 1011.9 1011.9 2.6
26/02:50pm 9.6 2.9 7.5 87 1.0 W 32 52 17 28 1011.9 - 2.6
26/02:30pm 8.9 2.6 7.4 90 0.7 W 30 43 16 23 1011.7 - 2.4
26/02:00pm 9.1 2.9 7.9 92 0.6 W 30 44 16 24 1011.7 - 2.4
26/01:47pm 9.1 2.5 7.6 90 0.7 WSW 32 50 17 27 1011.6 - 2.2
26/01:36pm 9.9 2.8 8.1 88 0.9 W 35 63 19 34 1011.4 - 2.2
26/01:30pm 10.2 -0.5 7.9 86 1.1 WNW 54 61 29 33 1010.8 - 2.2
26/01:00pm 9.6 -3.1 8.4 92 0.6 NW 65 74 35 40 1010.4 - 1.4
26/12:30pm 10.1 -2.3 8.3 88 0.9 NW 63 70 34 38 1010.1 - 1.2
26/12:00pm 10.1 -0.9 8.3 88 0.9 NW 56 - 30 - - 1010.8 -
26/11:00am 10.2 0.7 8.2 87 1.0 NNW 48 57 26 31 1011.2 - 0.2
26/10:30am 9.5 0.3 7.8 89 0.8 NNW 46 54 25 29 1011.4 - 0.2
26/10:00am 8.5 -1.5 7.7 95 0.4 NNW 50 61 27 33 1011.7 - 0.2
26/09:30am 8.4 -3.1 7.1 91 0.6 NW 57 65 31 35 1011.4 - 0.0
26/09:07am 9.4 -1.2 5.2 75 1.9 NW 50 70 27 38 1011.5 - 0.0
26/09:00am 9.3 -0.4 5.6 78 1.7 WNW 46 61 25 33 1011.8 1011.8 0.2
26/08:30am 9.7 0.1 3.6 66 2.7 NW 43 52 23 28 1012.0 - 0.2
26/08:00am 9.3 0.6 3.9 69 2.4 NW 39 46 21 25 1012.4 - 0.2
26/07:30am 8.7 -0.7 4.2 73 2.0 NW 43 50 23 27 1012.5 - 0.2
26/07:00am 8.6 -1.1 3.0 68 2.4 NW 43 50 23 27 1012.5 - 0.2
26/06:30am 8.6 -1.7 2.7 66 2.5 NW 46 54 25 29 1012.2 - 0.2
26/06:00am 8.6 -1.1 3.0 68 2.4 NW 43 56 23 30 1012.2 1012.2 0.2
26/05:30am 8.9 -2.2 2.3 63 2.8 WNW 50 59 27 32 1011.9 - 0.2
26/05:00am 9.0 -1.0 2.1 62 2.9 NW 44 52 24 28 1012.2 - 0.2
26/04:30am 9.3 -0.1 2.5 62 2.9 NW 41 50 22 27 1012.3 - 0.0
26/04:00am 8.8 -0.8 1.3 59 3.1 WNW 41 50 22 27 1012.4 - 0.0
26/03:30am 9.1 0.4 2.0 61 3.0 WNW 37 46 20 25 1012.5 - 0.0
26/03:23am 9.2 0.6 2.4 62 2.9 WNW 37 46 20 25 1012.4 - 0.0
26/03:00am 8.6 3.0 5.3 80 1.5 NNW 24 32 13 17 1012.6 1012.6 0.0
26/02:30am 8.7 2.8 5.6 81 1.4 NNW 26 33 14 18 1012.8 - 0.0
26/02:00am 8.8 3.3 3.8 71 2.2 WNW 22 30 12 16 1013.2 - 0.0
26/01:30am 8.5 3.4 2.9 68 2.4 WNW 19 28 10 15 1013.4 - 0.0
26/01:00am 8.2 3.7 4.1 75 1.8 WNW 17 24 9 13 1013.4 - 0.0
26/12:30am 8.2 3.4 4.8 79 1.5 WNW 19 24 10 13 1013.5 - 0.0
26/12:00am 8.1 4.7 5.7 85 1.1 N 13 17 7 9 1013.5 1013.5 0.0
 
Date/Time
EST
Temp
°C
App
Temp
°C
Dew
Point
Rel
Hum
%
Delta-T
°C
Wind Press
QNH
hPa
Press
MSL
hPa
Rain
since 9 am
mm
Dir
 
Spd
km/h
Gust
km/h
Spd
kts
Gust
kts
25/11:30pm 8.0 4.9 5.6 85 1.1 N 11 13 6 7 1013.6 - 0.0
25/11:00pm 8.5 6.1 4.4 75 1.8 WNW 6 9 3 5 1013.8 - 0.0
25/10:30pm 8.5 5.8 3.9 73 2.0 W 7 11 4 6 1013.9 - 0.0
25/10:00pm 8.5 5.8 3.7 72 2.1 S 7 15 4 8 1014.0 - 0.0
25/09:30pm 8.2 6.4 3.6 73 2.0 ENE 2 7 1 4 1014.0 - 0.0
25/09:00pm 8.4 6.0 4.1 74 1.9 SE 6 15 3 8 1014.0 1014.0 0.0
25/08:30pm 8.4 6.0 5.1 80 1.5 N 7 11 4 6 1013.9 - 0.0
25/08:00pm 8.5 5.9 4.2 74 1.9 SSW 7 17 4 9 1013.9 - 0.0
25/07:30pm 8.4 3.3 4.3 75 1.8 S 20 24 11 13 1013.7 - 0.0
25/07:00pm 8.3 4.0 5.2 81 1.4 SE 17 26 9 14 1013.5 - 0.0
25/06:30pm 8.1 3.9 5.7 85 1.1 SE 17 26 9 14 1013.3 - 0.0
25/06:00pm 8.1 3.5 6.4 89 0.8 SE 20 30 11 16 1013.0 1013.0 0.0
25/05:56pm 8.2 4.5 6.5 89 0.8 ESE 15 32 8 17 1012.9 - 0.0
25/05:30pm 8.6 0.4 6.7 88 0.9 S 39 44 21 24 1012.3 - 0.0
25/05:00pm 8.9 3.3 5.4 79 1.6 S 24 30 13 16 1012.3 - 0.0
25/04:30pm 9.2 3.9 5.2 76 1.8 S 22 26 12 14 1012.3 - 0.0
25/04:00pm 9.5 4.7 4.9 73 2.1 S 19 26 10 14 1012.2 - 0.0
25/03:30pm 9.5 5.4 4.6 71 2.2 S 15 20 8 11 1012.1 - 0.0

Other Formats:

Comma delimited format used in spreadsheet applications
http://www.bom.gov.au/fwo/IDT60801/IDT60801.94962.axf

JavaScript Object Notation format (JSON) in row-major order
http://www.bom.gov.au/fwo/IDT60801/IDT60801.94962.json